sensor_id;sensor_type;location;lat;lon;timestamp;pressure;altitude;pressure_sealevel;temperature;humidity
9784;BME280;4931;44.874;-1.092;2023-05-12T00:00:57;101597.38;;;10.14;100.00
9784;BME280;4931;44.874;-1.092;2023-05-12T00:03:24;101594.88;;;10.13;100.00
9784;BME280;4931;44.874;-1.092;2023-05-12T00:05:49;101589.66;;;10.11;100.00
9784;BME280;4931;44.874;-1.092;2023-05-12T00:08:15;101584.06;;;10.01;100.00
9784;BME280;4931;44.874;-1.092;2023-05-12T00:10:41;101585.94;;;10.01;100.00
9784;BME280;4931;44.874;-1.092;2023-05-12T00:13:07;101595.59;;;10.03;100.00
9784;BME280;4931;44.874;-1.092;2023-05-12T00:15:33;101577.31;;;9.87;100.00
9784;BME280;4931;44.874;-1.092;2023-05-12T00:17:58;101585.66;;;9.97;100.00
9784;BME280;4931;44.874;-1.092;2023-05-12T00:20:24;101581.84;;;9.76;100.00
9784;BME280;4931;44.874;-1.092;2023-05-12T00:22:49;101582.06;;;9.74;100.00
9784;BME280;4931;44.874;-1.092;2023-05-12T00:25:15;101594.19;;;9.78;100.00
9784;BME280;4931;44.874;-1.092;2023-05-12T00:27:40;101603.81;;;9.59;100.00
9784;BME280;4931;44.874;-1.092;2023-05-12T00:30:06;101601.91;;;9.42;100.00
9784;BME280;4931;44.874;-1.092;2023-05-12T00:32:32;101587.66;;;9.40;100.00
9784;BME280;4931;44.874;-1.092;2023-05-12T00:34:57;101596.75;;;9.46;100.00
9784;BME280;4931;44.874;-1.092;2023-05-12T00:37:24;101591.63;;;9.50;100.00
9784;BME280;4931;44.874;-1.092;2023-05-12T00:39:49;101592.25;;;9.57;100.00
9784;BME280;4931;44.874;-1.092;2023-05-12T00:42:15;101577.28;;;9.64;100.00
9784;BME280;4931;44.874;-1.092;2023-05-12T00:44:40;101583.59;;;9.65;100.00
9784;BME280;4931;44.874;-1.092;2023-05-12T00:47:06;101568.88;;;9.71;100.00
9784;BME280;4931;44.874;-1.092;2023-05-12T00:49:31;101559.53;;;9.67;100.00
9784;BME280;4931;44.874;-1.092;2023-05-12T00:51:57;101564.00;;;9.73;100.00
9784;BME280;4931;44.874;-1.092;2023-05-12T00:54:25;101549.53;;;9.17;100.00
9784;BME280;4931;44.874;-1.092;2023-05-12T00:56:51;101552.69;;;9.47;100.00
9784;BME280;4931;44.874;-1.092;2023-05-12T00:59:16;101542.19;;;9.39;100.00
9784;BME280;4931;44.874;-1.092;2023-05-12T01:01:42;101541.81;;;9.53;100.00
9784;BME280;4931;44.874;-1.092;2023-05-12T01:04:08;101547.81;;;9.50;100.00
9784;BME280;4931;44.874;-1.092;2023-05-12T01:09:07;101527.41;;;9.40;100.00
9784;BME280;4931;44.874;-1.092;2023-05-12T01:11:32;101531.84;;;9.46;100.00
9784;BME280;4931;44.874;-1.092;2023-05-12T01:13:58;101530.19;;;9.45;100.00
9784;BME280;4931;44.874;-1.092;2023-05-12T01:16:29;101528.03;;;9.47;100.00
9784;BME280;4931;44.874;-1.092;2023-05-12T01:18:56;101517.34;;;9.46;100.00
9784;BME280;4931;44.874;-1.092;2023-05-12T01:21:22;101521.50;;;9.49;100.00
9784;BME280;4931;44.874;-1.092;2023-05-12T01:23:53;101513.06;;;9.33;100.00
9784;BME280;4931;44.874;-1.092;2023-05-12T01:26:18;101521.06;;;9.18;100.00
9784;BME280;4931;44.874;-1.092;2023-05-12T01:28:44;101521.13;;;9.23;100.00
9784;BME280;4931;44.874;-1.092;2023-05-12T01:31:10;101525.38;;;9.13;100.00
9784;BME280;4931;44.874;-1.092;2023-05-12T01:33:36;101524.31;;;9.14;100.00
9784;BME280;4931;44.874;-1.092;2023-05-12T01:36:02;101520.31;;;9.22;100.00
9784;BME280;4931;44.874;-1.092;2023-05-12T01:38:27;101524.13;;;9.21;100.00
9784;BME280;4931;44.874;-1.092;2023-05-12T01:40:52;101512.75;;;9.12;100.00
9784;BME280;4931;44.874;-1.092;2023-05-12T01:43:18;101510.19;;;9.23;100.00
9784;BME280;4931;44.874;-1.092;2023-05-12T01:45:43;101516.00;;;9.09;100.00
9784;BME280;4931;44.874;-1.092;2023-05-12T01:48:08;101513.03;;;9.11;100.00
9784;BME280;4931;44.874;-1.092;2023-05-12T01:50:34;101523.06;;;9.05;100.00
9784;BME280;4931;44.874;-1.092;2023-05-12T01:52:59;101519.50;;;9.05;100.00
9784;BME280;4931;44.874;-1.092;2023-05-12T01:55:25;101516.00;;;9.09;100.00
9784;BME280;4931;44.874;-1.092;2023-05-12T01:57:50;101505.91;;;8.93;100.00
9784;BME280;4931;44.874;-1.092;2023-05-12T02:00:15;101503.59;;;9.02;100.00
9784;BME280;4931;44.874;-1.092;2023-05-12T02:02:41;101507.56;;;8.94;100.00
9784;BME280;4931;44.874;-1.092;2023-05-12T02:05:07;101506.94;;;8.87;100.00
9784;BME280;4931;44.874;-1.092;2023-05-12T02:07:36;101500.88;;;8.85;100.00
9784;BME280;4931;44.874;-1.092;2023-05-12T02:10:02;101502.19;;;8.82;100.00
9784;BME280;4931;44.874;-1.092;2023-05-12T02:12:27;101504.59;;;8.78;100.00
9784;BME280;4931;44.874;-1.092;2023-05-12T02:14:52;101503.44;;;8.74;100.00
9784;BME280;4931;44.874;-1.092;2023-05-12T02:17:21;101504.47;;;8.68;100.00
9784;BME280;4931;44.874;-1.092;2023-05-12T02:19:48;101509.84;;;8.63;100.00
9784;BME280;4931;44.874;-1.092;2023-05-12T02:22:14;101506.59;;;8.66;100.00
9784;BME280;4931;44.874;-1.092;2023-05-12T02:24:39;101504.47;;;8.68;100.00
9784;BME280;4931;44.874;-1.092;2023-05-12T02:27:04;101501.81;;;8.73;100.00
9784;BME280;4931;44.874;-1.092;2023-05-12T02:29:30;101496.47;;;8.67;100.00
9784;BME280;4931;44.874;-1.092;2023-05-12T02:31:55;101497.81;;;8.64;100.00
9784;BME280;4931;44.874;-1.092;2023-05-12T02:34:20;101491.44;;;8.58;100.00
9784;BME280;4931;44.874;-1.092;2023-05-12T02:36:46;101499.19;;;8.50;100.00
9784;BME280;4931;44.874;-1.092;2023-05-12T02:39:11;101488.88;;;8.52;100.00
9784;BME280;4931;44.874;-1.092;2023-05-12T02:41:38;101499.59;;;8.41;100.00
9784;BME280;4931;44.874;-1.092;2023-05-12T02:44:03;101493.16;;;8.47;100.00
9784;BME280;4931;44.874;-1.092;2023-05-12T02:46:28;101501.56;;;8.58;100.00
9784;BME280;4931;44.874;-1.092;2023-05-12T02:48:54;101496.59;;;8.26;100.00
9784;BME280;4931;44.874;-1.092;2023-05-12T02:51:19;101490.28;;;8.25;100.00
9784;BME280;4931;44.874;-1.092;2023-05-12T02:53:44;101484.03;;;8.42;100.00
9784;BME280;4931;44.874;-1.092;2023-05-12T02:56:10;101484.84;;;8.42;100.00
9784;BME280;4931;44.874;-1.092;2023-05-12T02:58:36;101495.44;;;8.39;100.00
9784;BME280;4931;44.874;-1.092;2023-05-12T03:01:01;101486.88;;;8.47;100.00
9784;BME280;4931;44.874;-1.092;2023-05-12T03:03:26;101483.91;;;8.49;100.00
9784;BME280;4931;44.874;-1.092;2023-05-12T03:05:52;101480.22;;;8.60;100.00
9784;BME280;4931;44.874;-1.092;2023-05-12T03:08:18;101488.44;;;8.60;100.00
9784;BME280;4931;44.874;-1.092;2023-05-12T03:10:43;101486.22;;;8.57;100.00
9784;BME280;4931;44.874;-1.092;2023-05-12T03:13:08;101484.38;;;8.45;100.00
9784;BME280;4931;44.874;-1.092;2023-05-12T03:15:34;101480.91;;;8.50;100.00
9784;BME280;4931;44.874;-1.092;2023-05-12T03:18:00;101482.78;;;8.33;100.00
9784;BME280;4931;44.874;-1.092;2023-05-12T03:20:26;101484.75;;;8.37;100.00
9784;BME280;4931;44.874;-1.092;2023-05-12T03:22:51;101480.88;;;8.33;100.00
9784;BME280;4931;44.874;-1.092;2023-05-12T03:25:16;101484.75;;;8.37;100.00
9784;BME280;4931;44.874;-1.092;2023-05-12T03:27:42;101480.44;;;8.41;100.00
9784;BME280;4931;44.874;-1.092;2023-05-12T03:30:07;101481.69;;;8.34;100.00
9784;BME280;4931;44.874;-1.092;2023-05-12T03:32:33;101482.28;;;8.36;100.00
9784;BME280;4931;44.874;-1.092;2023-05-12T03:34:58;101482.53;;;8.34;100.00
9784;BME280;4931;44.874;-1.092;2023-05-12T03:37:23;101483.50;;;8.28;100.00
9784;BME280;4931;44.874;-1.092;2023-05-12T03:39:49;101472.66;;;8.16;100.00
9784;BME280;4931;44.874;-1.092;2023-05-12T03:42:14;101466.94;;;8.18;100.00
9784;BME280;4931;44.874;-1.092;2023-05-12T03:44:40;101459.78;;;8.17;100.00
9784;BME280;4931;44.874;-1.092;2023-05-12T03:47:05;101454.84;;;8.13;100.00
9784;BME280;4931;44.874;-1.092;2023-05-12T03:49:31;101458.72;;;8.18;100.00
9784;BME280;4931;44.874;-1.092;2023-05-12T03:51:57;101447.28;;;8.21;100.00
9784;BME280;4931;44.874;-1.092;2023-05-12T03:54:22;101458.22;;;8.21;100.00
9784;BME280;4931;44.874;-1.092;2023-05-12T03:56:47;101456.97;;;8.11;100.00
9784;BME280;4931;44.874;-1.092;2023-05-12T03:59:12;101457.97;;;8.05;100.00
9784;BME280;4931;44.874;-1.092;2023-05-12T04:01:38;101449.19;;;8.03;100.00
9784;BME280;4931;44.874;-1.092;2023-05-12T04:04:03;101455.56;;;7.92;100.00
9784;BME280;4931;44.874;-1.092;2023-05-12T04:06:28;101451.81;;;7.98;100.00
9784;BME280;4931;44.874;-1.092;2023-05-12T04:08:55;101457.53;;;7.96;100.00
9784;BME280;4931;44.874;-1.092;2023-05-12T04:11:20;101447.44;;;7.97;100.00
9784;BME280;4931;44.874;-1.092;2023-05-12T04:13:46;101448.03;;;7.99;100.00
9784;BME280;4931;44.874;-1.092;2023-05-12T04:16:11;101446.97;;;8.00;100.00
9784;BME280;4931;44.874;-1.092;2023-05-12T04:18:36;101451.63;;;7.88;100.00
9784;BME280;4931;44.874;-1.092;2023-05-12T04:21:02;101443.69;;;7.86;100.00
9784;BME280;4931;44.874;-1.092;2023-05-12T04:23:27;101441.94;;;7.80;100.00
9784;BME280;4931;44.874;-1.092;2023-05-12T04:25:53;101443.84;;;7.79;100.00
9784;BME280;4931;44.874;-1.092;2023-05-12T04:28:18;101449.84;;;7.64;100.00
9784;BME280;4931;44.874;-1.092;2023-05-12T04:30:43;101445.50;;;7.52;100.00
9784;BME280;4931;44.874;-1.092;2023-05-12T04:33:09;101444.22;;;7.42;100.00
9784;BME280;4931;44.874;-1.092;2023-05-12T04:35:35;101456.31;;;7.46;100.00
9784;BME280;4931;44.874;-1.092;2023-05-12T04:38:00;101451.53;;;7.54;100.00
9784;BME280;4931;44.874;-1.092;2023-05-12T04:40:26;101451.91;;;7.45;100.00
9784;BME280;4931;44.874;-1.092;2023-05-12T04:42:52;101451.66;;;7.47;100.00
9784;BME280;4931;44.874;-1.092;2023-05-12T04:45:17;101449.03;;;7.52;100.00
9784;BME280;4931;44.874;-1.092;2023-05-12T04:47:42;101451.44;;;7.48;100.00
9784;BME280;4931;44.874;-1.092;2023-05-12T04:50:08;101453.81;;;7.45;100.00
9784;BME280;4931;44.874;-1.092;2023-05-12T04:52:34;101459.72;;;7.54;100.00
9784;BME280;4931;44.874;-1.092;2023-05-12T04:55:00;101457.38;;;7.45;100.00
9784;BME280;4931;44.874;-1.092;2023-05-12T04:57:25;101452.84;;;7.51;100.00
9784;BME280;4931;44.874;-1.092;2023-05-12T04:59:51;101460.09;;;7.45;100.00
9784;BME280;4931;44.874;-1.092;2023-05-12T05:02:16;101462.25;;;7.43;100.00
9784;BME280;4931;44.874;-1.092;2023-05-12T05:04:41;101454.78;;;7.39;100.00
9784;BME280;4931;44.874;-1.092;2023-05-12T05:07:07;101460.09;;;7.45;100.00
9784;BME280;4931;44.874;-1.092;2023-05-12T05:09:32;101456.09;;;7.36;100.00
9784;BME280;4931;44.874;-1.092;2023-05-12T05:11:58;101464.25;;;7.48;100.00
9784;BME280;4931;44.874;-1.092;2023-05-12T05:14:23;101466.28;;;7.53;100.00
9784;BME280;4931;44.874;-1.092;2023-05-12T05:16:49;101471.38;;;7.49;100.00
9784;BME280;4931;44.874;-1.092;2023-05-12T05:19:14;101474.34;;;7.47;100.00
9784;BME280;4931;44.874;-1.092;2023-05-12T05:21:40;101476.50;;;7.45;100.00
9784;BME280;4931;44.874;-1.092;2023-05-12T05:24:06;101477.09;;;7.47;100.00
9784;BME280;4931;44.874;-1.092;2023-05-12T05:26:32;101473.19;;;7.43;100.00
9784;BME280;4931;44.874;-1.092;2023-05-12T05:28:57;101477.78;;;7.43;100.00
9784;BME280;4931;44.874;-1.092;2023-05-12T05:31:22;101478.16;;;7.46;100.00
9784;BME280;4931;44.874;-1.092;2023-05-12T05:33:48;101483.34;;;7.60;100.00
9784;BME280;4931;44.874;-1.092;2023-05-12T05:36:13;101485.09;;;7.66;100.00
9784;BME280;4931;44.874;-1.092;2023-05-12T05:38:38;101489.41;;;7.91;100.00
9784;BME280;4931;44.874;-1.092;2023-05-12T05:41:04;101491.25;;;8.02;100.00
9784;BME280;4931;44.874;-1.092;2023-05-12T05:43:29;101489.44;;;8.08;100.00
9784;BME280;4931;44.874;-1.092;2023-05-12T05:45:55;101501.56;;;8.29;100.00
9784;BME280;4931;44.874;-1.092;2023-05-12T05:48:22;101495.50;;;8.56;100.00
9784;BME280;4931;44.874;-1.092;2023-05-12T05:50:47;101499.13;;;8.78;100.00
9784;BME280;4931;44.874;-1.092;2023-05-12T05:53:14;101488.13;;;9.12;100.00
9784;BME280;4931;44.874;-1.092;2023-05-12T05:55:39;101495.38;;;9.41;100.00
9784;BME280;4931;44.874;-1.092;2023-05-12T05:58:04;101492.09;;;9.66;100.00
9784;BME280;4931;44.874;-1.092;2023-05-12T06:00:30;101494.84;;;9.88;100.00
9784;BME280;4931;44.874;-1.092;2023-05-12T06:02:55;101495.25;;;10.02;100.00
9784;BME280;4931;44.874;-1.092;2023-05-12T06:05:20;101492.63;;;10.12;100.00
9784;BME280;4931;44.874;-1.092;2023-05-12T06:07:46;101492.25;;;10.31;100.00
9784;BME280;4931;44.874;-1.092;2023-05-12T06:10:11;101492.66;;;10.45;100.00
9784;BME280;4931;44.874;-1.092;2023-05-12T06:12:37;101491.50;;;10.68;100.00
9784;BME280;4931;44.874;-1.092;2023-05-12T06:15:02;101501.28;;;10.91;100.00
9784;BME280;4931;44.874;-1.092;2023-05-12T06:17:27;101490.13;;;14.82;100.00
9784;BME280;4931;44.874;-1.092;2023-05-12T06:19:53;101496.56;;;13.01;100.00
9784;BME280;4931;44.874;-1.092;2023-05-12T06:22:18;101505.44;;;12.41;100.00
9784;BME280;4931;44.874;-1.092;2023-05-12T06:24:43;101506.25;;;12.21;100.00
9784;BME280;4931;44.874;-1.092;2023-05-12T06:27:09;101505.94;;;12.12;100.00
9784;BME280;4931;44.874;-1.092;2023-05-12T06:29:34;101506.25;;;12.42;100.00
9784;BME280;4931;44.874;-1.092;2023-05-12T06:31:59;101508.19;;;12.52;100.00
9784;BME280;4931;44.874;-1.092;2023-05-12T06:34:25;101504.31;;;12.89;100.00
9784;BME280;4931;44.874;-1.092;2023-05-12T06:36:50;101515.56;;;13.13;100.00
9784;BME280;4931;44.874;-1.092;2023-05-12T06:39:16;101518.00;;;13.25;100.00
9784;BME280;4931;44.874;-1.092;2023-05-12T06:41:41;101506.97;;;13.35;100.00
9784;BME280;4931;44.874;-1.092;2023-05-12T06:44:07;101522.41;;;13.26;100.00
9784;BME280;4931;44.874;-1.092;2023-05-12T06:46:37;101520.22;;;13.33;100.00
9784;BME280;4931;44.874;-1.092;2023-05-12T06:49:02;101511.88;;;13.59;100.00
9784;BME280;4931;44.874;-1.092;2023-05-12T06:51:27;101517.44;;;14.04;100.00
9784;BME280;4931;44.874;-1.092;2023-05-12T06:53:53;101512.09;;;14.23;100.00
9784;BME280;4931;44.874;-1.092;2023-05-12T06:56:18;101514.53;;;14.30;100.00
9784;BME280;4931;44.874;-1.092;2023-05-12T06:58:44;101518.84;;;14.81;100.00
9784;BME280;4931;44.874;-1.092;2023-05-12T07:01:09;101520.47;;;15.11;100.00
9784;BME280;4931;44.874;-1.092;2023-05-12T07:03:35;101523.84;;;15.32;100.00
9784;BME280;4931;44.874;-1.092;2023-05-12T07:06:00;101528.66;;;15.46;100.00
9784;BME280;4931;44.874;-1.092;2023-05-12T07:08:25;101528.56;;;15.56;100.00
9784;BME280;4931;44.874;-1.092;2023-05-12T07:10:51;101522.44;;;15.59;100.00
9784;BME280;4931;44.874;-1.092;2023-05-12T07:13:16;101523.66;;;15.96;100.00
9784;BME280;4931;44.874;-1.092;2023-05-12T07:15:43;101524.41;;;15.83;100.00
9784;BME280;4931;44.874;-1.092;2023-05-12T07:18:08;101522.78;;;15.76;100.00
9784;BME280;4931;44.874;-1.092;2023-05-12T07:20:33;101530.22;;;16.00;100.00
9784;BME280;4931;44.874;-1.092;2023-05-12T07:22:59;101529.25;;;16.29;100.00
9784;BME280;4931;44.874;-1.092;2023-05-12T07:25:24;101535.25;;;16.36;100.00
9784;BME280;4931;44.874;-1.092;2023-05-12T07:27:49;101539.06;;;16.40;100.00
9784;BME280;4931;44.874;-1.092;2023-05-12T07:30:15;101526.63;;;16.57;100.00
9784;BME280;4931;44.874;-1.092;2023-05-12T07:32:41;101528.00;;;16.73;100.00
9784;BME280;4931;44.874;-1.092;2023-05-12T07:35:07;101528.59;;;16.70;100.00
9784;BME280;4931;44.874;-1.092;2023-05-12T07:37:33;101521.16;;;16.85;100.00
9784;BME280;4931;44.874;-1.092;2023-05-12T07:39:58;101521.34;;;17.21;100.00
9784;BME280;4931;44.874;-1.092;2023-05-12T07:42:24;101519.91;;;17.52;100.00
9784;BME280;4931;44.874;-1.092;2023-05-12T07:44:49;101518.72;;;17.44;100.00
9784;BME280;4931;44.874;-1.092;2023-05-12T07:47:14;101520.22;;;16.75;100.00
9784;BME280;4931;44.874;-1.092;2023-05-12T07:49:39;101514.97;;;16.93;100.00
9784;BME280;4931;44.874;-1.092;2023-05-12T07:52:05;101516.16;;;17.34;100.00
9784;BME280;4931;44.874;-1.092;2023-05-12T07:54:30;101510.59;;;17.06;100.00
9784;BME280;4931;44.874;-1.092;2023-05-12T07:56:56;101510.84;;;16.90;100.00
9784;BME280;4931;44.874;-1.092;2023-05-12T07:59:21;101521.84;;;16.76;100.00
9784;BME280;4931;44.874;-1.092;2023-05-12T08:01:47;101513.78;;;16.47;100.00
9784;BME280;4931;44.874;-1.092;2023-05-12T08:04:12;101520.25;;;16.89;100.00
9784;BME280;4931;44.874;-1.092;2023-05-12T08:06:37;101517.47;;;17.50;100.00
9784;BME280;4931;44.874;-1.092;2023-05-12T08:09:02;101522.28;;;17.72;100.00
9784;BME280;4931;44.874;-1.092;2023-05-12T08:11:28;101519.91;;;17.24;100.00
9784;BME280;4931;44.874;-1.092;2023-05-12T08:13:53;101519.19;;;17.74;100.00
9784;BME280;4931;44.874;-1.092;2023-05-12T08:16:18;101525.09;;;17.58;100.00
9784;BME280;4931;44.874;-1.092;2023-05-12T08:18:44;101527.34;;;17.70;100.00
9784;BME280;4931;44.874;-1.092;2023-05-12T08:21:09;101516.38;;;18.16;100.00
9784;BME280;4931;44.874;-1.092;2023-05-12T08:23:34;101514.78;;;18.01;100.00
9784;BME280;4931;44.874;-1.092;2023-05-12T08:26:02;101519.72;;;17.34;100.00
9784;BME280;4931;44.874;-1.092;2023-05-12T08:28:27;101518.91;;;17.20;100.00
9784;BME280;4931;44.874;-1.092;2023-05-12T08:30:53;101522.06;;;17.69;100.00
9784;BME280;4931;44.874;-1.092;2023-05-12T08:33:18;101517.41;;;17.92;100.00
9784;BME280;4931;44.874;-1.092;2023-05-12T08:35:44;101519.00;;;18.57;100.00
9784;BME280;4931;44.874;-1.092;2023-05-12T08:38:09;101518.38;;;17.87;100.00
9784;BME280;4931;44.874;-1.092;2023-05-12T08:40:37;101513.59;;;18.16;100.00
9784;BME280;4931;44.874;-1.092;2023-05-12T08:45:37;101513.50;;;18.66;100.00
9784;BME280;4931;44.874;-1.092;2023-05-12T08:48:08;101517.03;;;18.35;100.00
9784;BME280;4931;44.874;-1.092;2023-05-12T08:50:37;101518.69;;;17.58;100.00
9784;BME280;4931;44.874;-1.092;2023-05-12T08:53:02;101523.78;;;18.20;100.00
9784;BME280;4931;44.874;-1.092;2023-05-12T08:55:28;101518.59;;;18.73;100.00
9784;BME280;4931;44.874;-1.092;2023-05-12T08:57:54;101520.38;;;19.23;100.00
9784;BME280;4931;44.874;-1.092;2023-05-12T09:00:20;101515.34;;;19.02;100.00
9784;BME280;4931;44.874;-1.092;2023-05-12T09:02:48;101520.94;;;19.51;100.00
9784;BME280;4931;44.874;-1.092;2023-05-12T09:05:14;101524.47;;;19.74;100.00
9784;BME280;4931;44.874;-1.092;2023-05-12T09:07:41;101516.63;;;19.77;100.00
9784;BME280;4931;44.874;-1.092;2023-05-12T09:10:07;101519.97;;;20.31;100.00
9784;BME280;4931;44.874;-1.092;2023-05-12T09:12:34;101521.63;;;20.15;100.00
9784;BME280;4931;44.874;-1.092;2023-05-12T09:15:02;101523.63;;;19.25;100.00
9784;BME280;4931;44.874;-1.092;2023-05-12T09:17:28;101530.94;;;19.44;100.00
9784;BME280;4931;44.874;-1.092;2023-05-12T09:19:53;101531.88;;;19.88;100.00
9784;BME280;4931;44.874;-1.092;2023-05-12T09:22:26;101526.28;;;19.30;100.00
9784;BME280;4931;44.874;-1.092;2023-05-12T09:24:51;101525.56;;;19.16;100.00
9784;BME280;4931;44.874;-1.092;2023-05-12T09:27:22;101527.75;;;18.96;100.00
9784;BME280;4931;44.874;-1.092;2023-05-12T09:29:48;101524.16;;;18.96;100.00
9784;BME280;4931;44.874;-1.092;2023-05-12T09:32:13;101530.78;;;18.63;100.00
9784;BME280;4931;44.874;-1.092;2023-05-12T09:34:39;101531.09;;;18.39;100.00
9784;BME280;4931;44.874;-1.092;2023-05-12T09:37:05;101535.34;;;18.36;100.00
9784;BME280;4931;44.874;-1.092;2023-05-12T09:39:31;101532.16;;;18.29;100.00
9784;BME280;4931;44.874;-1.092;2023-05-12T09:41:56;101537.59;;;18.34;100.00
9784;BME280;4931;44.874;-1.092;2023-05-12T09:44:22;101541.03;;;18.17;100.00
9784;BME280;4931;44.874;-1.092;2023-05-12T09:46:47;101542.09;;;18.07;100.00
9784;BME280;4931;44.874;-1.092;2023-05-12T09:49:23;101540.75;;;17.91;100.00
9784;BME280;4931;44.874;-1.092;2023-05-12T09:51:55;101543.13;;;17.70;100.00
9784;BME280;4931;44.874;-1.092;2023-05-12T09:54:30;101542.13;;;17.66;100.00
9784;BME280;4931;44.874;-1.092;2023-05-12T09:56:57;101539.56;;;17.69;100.00
9784;BME280;4931;44.874;-1.092;2023-05-12T09:59:23;101542.34;;;17.69;100.00
9784;BME280;4931;44.874;-1.092;2023-05-12T10:01:51;101549.53;;;17.56;100.00
9784;BME280;4931;44.874;-1.092;2023-05-12T10:04:17;101542.53;;;17.45;100.00
9784;BME280;4931;44.874;-1.092;2023-05-12T10:06:42;101541.50;;;17.27;100.00
9784;BME280;4931;44.874;-1.092;2023-05-12T10:09:19;101545.38;;;17.12;100.00
9784;BME280;4931;44.874;-1.092;2023-05-12T10:11:45;101550.91;;;16.98;100.00
9784;BME280;4931;44.874;-1.092;2023-05-12T10:14:11;101548.59;;;16.86;100.00
9784;BME280;4931;44.874;-1.092;2023-05-12T10:16:37;101559.59;;;16.72;100.00
9784;BME280;4931;44.874;-1.092;2023-05-12T10:19:04;101568.06;;;16.62;100.00
9784;BME280;4931;44.874;-1.092;2023-05-12T10:21:30;101560.00;;;16.08;100.00
9784;BME280;4931;44.874;-1.092;2023-05-12T10:23:55;101555.16;;;15.76;100.00
9784;BME280;4931;44.874;-1.092;2023-05-12T10:26:21;101562.53;;;15.32;100.00
9784;BME280;4931;44.874;-1.092;2023-05-12T10:28:47;101561.03;;;15.21;100.00
9784;BME280;4931;44.874;-1.092;2023-05-12T10:31:13;101547.59;;;14.74;100.00
9784;BME280;4931;44.874;-1.092;2023-05-12T10:33:39;101557.34;;;15.01;100.00
9784;BME280;4931;44.874;-1.092;2023-05-12T10:36:14;101552.19;;;15.19;100.00
9784;BME280;4931;44.874;-1.092;2023-05-12T10:38:40;101542.06;;;15.09;100.00
9784;BME280;4931;44.874;-1.092;2023-05-12T10:41:05;101552.13;;;15.24;100.00
9784;BME280;4931;44.874;-1.092;2023-05-12T10:43:38;101547.06;;;15.31;100.00
9784;BME280;4931;44.874;-1.092;2023-05-12T10:46:14;101548.09;;;15.40;100.00
9784;BME280;4931;44.874;-1.092;2023-05-12T10:48:50;101550.47;;;15.23;100.00
9784;BME280;4931;44.874;-1.092;2023-05-12T10:51:20;101553.03;;;15.43;100.00
9784;BME280;4931;44.874;-1.092;2023-05-12T10:53:49;101546.66;;;15.43;100.00
9784;BME280;4931;44.874;-1.092;2023-05-12T10:56:20;101551.72;;;15.60;100.00
9784;BME280;4931;44.874;-1.092;2023-05-12T11:01:52;101552.25;;;15.86;100.00
9784;BME280;4931;44.874;-1.092;2023-05-12T11:04:19;101548.28;;;16.17;100.00
9784;BME280;4931;44.874;-1.092;2023-05-12T11:06:55;101545.78;;;16.53;100.00
9784;BME280;4931;44.874;-1.092;2023-05-12T11:09:21;101542.25;;;16.67;100.00
9784;BME280;4931;44.874;-1.092;2023-05-12T11:11:46;101546.88;;;16.71;100.00
9784;BME280;4931;44.874;-1.092;2023-05-12T11:14:12;101534.38;;;16.74;100.00
9784;BME280;4931;44.874;-1.092;2023-05-12T11:16:42;101531.91;;;16.72;100.00
9784;BME280;4931;44.874;-1.092;2023-05-12T11:19:07;101531.47;;;16.65;100.00
9784;BME280;4931;44.874;-1.092;2023-05-12T11:21:33;101528.88;;;16.55;100.00
9784;BME280;4931;44.874;-1.092;2023-05-12T11:23:59;101526.09;;;16.55;100.00
9784;BME280;4931;44.874;-1.092;2023-05-12T11:26:25;101529.53;;;16.47;100.00
9784;BME280;4931;44.874;-1.092;2023-05-12T11:28:51;101532.47;;;16.55;100.00
9784;BME280;4931;44.874;-1.092;2023-05-12T11:31:20;101527.78;;;16.70;100.00
9784;BME280;4931;44.874;-1.092;2023-05-12T11:33:46;101528.03;;;17.34;100.00
9784;BME280;4931;44.874;-1.092;2023-05-12T11:36:11;101529.75;;;17.86;100.00
9784;BME280;4931;44.874;-1.092;2023-05-12T11:38:36;101522.69;;;18.30;100.00
9784;BME280;4931;44.874;-1.092;2023-05-12T11:41:02;101511.06;;;18.96;100.00
9784;BME280;4931;44.874;-1.092;2023-05-12T11:43:27;101517.59;;;19.23;100.00
9784;BME280;4931;44.874;-1.092;2023-05-12T11:45:53;101523.44;;;19.53;100.00
9784;BME280;4931;44.874;-1.092;2023-05-12T11:48:21;101521.09;;;19.37;100.00
9784;BME280;4931;44.874;-1.092;2023-05-12T11:50:56;101523.56;;;19.07;100.00
9784;BME280;4931;44.874;-1.092;2023-05-12T11:53:21;101522.50;;;18.72;100.00
9784;BME280;4931;44.874;-1.092;2023-05-12T11:55:52;101527.75;;;18.51;100.00
9784;BME280;4931;44.874;-1.092;2023-05-12T11:58:24;101535.81;;;18.38;100.00
9784;BME280;4931;44.874;-1.092;2023-05-12T12:00:54;101534.66;;;18.17;100.00
9784;BME280;4931;44.874;-1.092;2023-05-12T12:03:21;101545.81;;;17.89;100.00
9784;BME280;4931;44.874;-1.092;2023-05-12T12:06:00;101544.38;;;17.50;100.00
9784;BME280;4931;44.874;-1.092;2023-05-12T12:08:26;101549.09;;;17.35;100.00
9784;BME280;4931;44.874;-1.092;2023-05-12T12:10:51;101560.75;;;17.04;100.00
9784;BME280;4931;44.874;-1.092;2023-05-12T12:13:20;101553.44;;;16.75;100.00
9784;BME280;4931;44.874;-1.092;2023-05-12T12:15:46;101560.31;;;16.45;100.00
9784;BME280;4931;44.874;-1.092;2023-05-12T12:18:11;101550.66;;;16.42;100.00
9784;BME280;4931;44.874;-1.092;2023-05-12T12:20:37;101533.69;;;16.30;100.00
9784;BME280;4931;44.874;-1.092;2023-05-12T12:23:02;101530.53;;;16.18;100.00
9784;BME280;4931;44.874;-1.092;2023-05-12T12:25:28;101521.50;;;16.12;100.00
9784;BME280;4931;44.874;-1.092;2023-05-12T12:27:53;101518.78;;;16.07;100.00
9784;BME280;4931;44.874;-1.092;2023-05-12T12:30:18;101525.81;;;15.99;100.00
9784;BME280;4931;44.874;-1.092;2023-05-12T12:32:44;101524.63;;;16.05;100.00
9784;BME280;4931;44.874;-1.092;2023-05-12T12:35:10;101515.34;;;15.96;100.00
9784;BME280;4931;44.874;-1.092;2023-05-12T12:37:37;101525.38;;;15.92;100.00
9784;BME280;4931;44.874;-1.092;2023-05-12T12:40:02;101524.69;;;15.81;100.00
9784;BME280;4931;44.874;-1.092;2023-05-12T12:42:32;101528.22;;;15.87;100.00
9784;BME280;4931;44.874;-1.092;2023-05-12T12:44:58;101529.31;;;15.86;100.00
9784;BME280;4931;44.874;-1.092;2023-05-12T12:47:23;101527.50;;;15.76;100.00
9784;BME280;4931;44.874;-1.092;2023-05-12T12:49:49;101526.03;;;15.84;100.00
9784;BME280;4931;44.874;-1.092;2023-05-12T12:52:14;101523.94;;;15.70;100.00
9784;BME280;4931;44.874;-1.092;2023-05-12T12:54:39;101531.44;;;15.70;100.00
9784;BME280;4931;44.874;-1.092;2023-05-12T12:57:05;101528.19;;;15.63;100.00